createdAt,value
2022-09-12T00:01:26.102Z,101254.41
2022-09-12T00:05:02.011Z,101249.64
2022-09-12T00:08:37.530Z,101252.13
2022-09-12T00:12:13.942Z,101248.77
2022-09-12T00:15:50.796Z,101256.52
2022-09-12T00:19:29.180Z,101250.88
2022-09-12T00:23:04.709Z,101249.83
2022-09-12T00:26:40.843Z,101250.70
2022-09-12T00:30:18.170Z,101246.13
2022-09-12T00:33:57.567Z,101244.54
2022-09-12T00:37:31.615Z,101242.44
2022-09-12T00:41:13.700Z,101244.02
2022-09-12T00:44:50.740Z,101247.02
2022-09-12T00:52:09.116Z,101241.77
2022-09-12T00:55:40.582Z,101245.08
2022-09-12T00:59:22.987Z,101243.15
2022-09-12T01:02:56.599Z,101239.80
2022-09-12T01:06:30.571Z,101243.86
2022-09-12T01:10:05.005Z,101247.73
2022-09-12T01:13:39.866Z,101250.02
2022-09-12T01:17:17.000Z,101251.23
2022-09-12T01:25:12.993Z,101247.22
2022-09-12T01:28:42.171Z,101248.10
2022-09-12T01:32:03.397Z,101244.57
2022-09-12T01:35:46.428Z,101242.80
2022-09-12T01:39:34.648Z,101242.63
2022-09-12T01:42:53.247Z,101243.16
2022-09-12T01:46:55.566Z,101246.32
2022-09-12T01:50:08.363Z,101245.95
2022-09-12T01:53:42.515Z,101248.77
2022-09-12T01:57:20.942Z,101250.34
2022-09-12T02:01:08.216Z,101251.94
2022-09-12T02:04:34.242Z,101253.53
2022-09-12T02:08:21.979Z,101255.27
2022-09-12T02:11:44.639Z,101257.92
2022-09-12T02:15:21.125Z,101258.11
2022-09-12T02:19:00.677Z,101252.64
2022-09-12T02:22:33.370Z,101251.39
2022-09-12T02:26:18.815Z,101248.91
2022-09-12T02:29:45.799Z,101249.63
2022-09-12T02:33:31.197Z,101251.20
2022-09-12T02:36:57.778Z,101256.67
2022-09-12T02:40:36.122Z,101253.32
2022-09-12T02:44:11.413Z,101259.31
2022-09-12T02:47:56.877Z,101260.54
2022-09-12T02:51:26.977Z,101257.73
2022-09-12T02:55:05.076Z,101257.91
2022-09-12T02:58:39.053Z,101258.80
2022-09-12T03:02:22.549Z,101262.50
2022-09-12T03:06:00.134Z,101256.15
2022-09-12T03:09:55.091Z,101258.25
2022-09-12T03:13:36.999Z,101255.27
2022-09-12T03:17:10.326Z,101258.96
2022-09-12T03:20:53.355Z,101259.51
2022-09-12T03:24:14.657Z,101257.74
2022-09-12T03:27:48.333Z,101260.74
2022-09-12T03:31:18.824Z,101266.58
2022-09-12T03:34:46.718Z,101266.22
2022-09-12T03:38:23.582Z,101271.34
2022-09-12T03:42:00.418Z,101274.69
2022-09-12T03:45:38.644Z,101273.45
2022-09-12T03:49:14.323Z,101278.39
2022-09-12T03:52:51.104Z,101279.44
2022-09-12T03:56:29.715Z,101275.13
2022-09-12T04:00:07.676Z,101276.98
2022-09-12T04:03:46.477Z,101283.16
2022-09-12T04:07:18.034Z,101284.02
2022-09-12T04:10:54.983Z,101282.42
2022-09-12T04:14:31.496Z,101284.35
2022-09-12T04:18:08.378Z,101284.54
2022-09-12T04:21:45.168Z,101290.69
2022-09-12T04:25:22.351Z,101291.21
2022-09-12T04:32:35.794Z,101293.31
2022-09-12T04:39:49.920Z,101298.05
2022-09-12T04:43:26.166Z,101297.50
2022-09-12T04:50:39.732Z,101295.73
2022-09-12T04:54:18.475Z,101294.85
2022-09-12T04:57:53.660Z,101294.49
2022-09-12T05:01:30.620Z,101299.27
2022-09-12T05:05:07.266Z,101297.65
2022-09-12T05:08:44.036Z,101305.01
2022-09-12T05:12:20.339Z,101299.27
2022-09-12T05:16:00.137Z,101300.56
2022-09-12T05:19:34.175Z,101297.00
2022-09-12T05:23:11.026Z,101298.02
2022-09-12T05:26:47.796Z,101303.11
2022-09-12T05:30:24.784Z,101305.35
2022-09-12T05:34:01.491Z,101306.72
2022-09-12T05:37:38.132Z,101308.63
2022-09-12T05:41:19.908Z,101314.80
2022-09-12T05:44:52.384Z,101314.10
2022-09-12T05:48:29.327Z,101316.34
2022-09-12T05:52:05.386Z,101319.98
2022-09-12T05:55:42.348Z,101321.04
2022-09-12T05:59:24.145Z,101324.10
2022-09-12T06:02:56.174Z,101326.89
2022-09-12T06:06:36.431Z,101330.23
2022-09-12T06:10:12.157Z,101331.93
2022-09-12T06:13:45.938Z,101332.85
2022-09-12T06:17:22.877Z,101335.02
2022-09-12T06:21:04.041Z,101333.16
2022-09-12T06:24:36.416Z,101336.30
2022-09-12T06:28:13.065Z,101333.31
2022-09-12T06:31:49.951Z,101340.33
2022-09-12T06:35:26.866Z,101345.06
2022-09-12T06:39:15.364Z,101342.21
2022-09-12T06:42:40.767Z,101347.35
2022-09-12T06:46:17.436Z,101345.73
2022-09-12T06:49:54.283Z,101348.85
2022-09-12T06:53:36.998Z,101353.07
2022-09-12T06:57:09.135Z,101355.70
2022-09-12T07:00:44.317Z,101357.23
2022-09-12T07:04:21.900Z,101354.33
2022-09-12T07:07:58.306Z,101354.55
2022-09-12T07:11:37.304Z,101360.23
2022-09-12T07:15:11.786Z,101365.30
2022-09-12T07:18:53.413Z,101363.52
2022-09-12T07:22:25.443Z,101364.83
2022-09-12T07:26:05.334Z,101366.59
2022-09-12T07:29:38.724Z,101368.33
2022-09-12T07:33:15.422Z,101376.16
2022-09-12T07:36:52.634Z,101377.88
2022-09-12T07:40:31.171Z,101385.14
2022-09-12T07:44:09.219Z,101390.45
2022-09-12T07:51:19.799Z,101397.18
2022-09-12T07:54:56.577Z,101397.17
2022-09-12T07:58:34.636Z,101395.20
2022-09-12T08:02:17.130Z,101400.95
2022-09-12T08:05:46.782Z,101401.94
2022-09-12T08:09:23.796Z,101401.69
2022-09-12T08:13:00.987Z,101404.80
2022-09-12T08:16:36.855Z,101403.47
2022-09-12T08:20:14.090Z,101404.35
2022-09-12T08:24:00.719Z,101407.15
2022-09-12T08:27:27.252Z,101411.53
2022-09-12T08:31:11.539Z,101412.21
2022-09-12T08:34:41.062Z,101413.99
2022-09-12T08:38:18.347Z,101410.85
2022-09-12T08:42:05.083Z,101410.80
2022-09-12T08:45:37.087Z,101412.65
2022-09-12T08:49:12.337Z,101408.42
2022-09-12T08:53:03.796Z,101411.86
2022-09-12T08:56:22.171Z,101410.08
2022-09-12T08:59:59.417Z,101411.23
2022-09-12T09:03:44.502Z,101418.30
2022-09-12T09:07:21.527Z,101417.65
2022-09-12T09:11:12.392Z,101421.72
2022-09-12T09:15:05.575Z,101416.81
2022-09-12T09:18:23.998Z,101412.20
2022-09-12T09:22:15.426Z,101415.98
2022-09-12T09:25:43.916Z,101416.55
2022-09-12T09:29:19.550Z,101416.73
2022-09-12T09:32:54.358Z,101418.95
2022-09-12T09:37:01.839Z,101421.23
2022-09-12T09:40:24.869Z,101417.50
2022-09-12T09:43:39.572Z,101419.85
2022-09-12T09:47:16.108Z,101421.13
2022-09-12T09:50:52.995Z,101415.05
2022-09-12T09:54:54.437Z,101419.67
2022-09-12T09:58:06.068Z,101424.62
2022-09-12T10:01:57.974Z,101426.98
2022-09-12T10:05:19.647Z,101429.02
2022-09-12T10:09:19.008Z,101432.86
2022-09-12T10:12:33.832Z,101437.09
2022-09-12T10:16:23.174Z,101438.11
2022-09-12T10:19:52.685Z,101433.08
2022-09-12T10:23:41.394Z,101435.83
2022-09-12T10:27:08.948Z,101435.09
2022-09-12T10:30:36.878Z,101436.14
2022-09-12T10:34:44.198Z,101441.77
2022-09-12T10:37:58.586Z,101444.55
2022-09-12T10:41:38.735Z,101448.34
2022-09-12T10:45:04.731Z,101442.02
2022-09-12T10:48:40.848Z,101438.00
2022-09-12T10:52:25.242Z,101439.17
2022-09-12T10:56:07.111Z,101436.96
2022-09-12T10:59:55.322Z,101435.08
2022-09-12T11:03:25.002Z,101436.27
2022-09-12T11:07:07.139Z,101438.75
2022-09-12T11:10:49.527Z,101445.77
2022-09-12T11:14:13.085Z,101438.23
2022-09-12T11:18:00.183Z,101438.75
2022-09-12T11:21:38.663Z,101440.73
2022-09-12T11:25:12.370Z,101440.65
2022-09-12T11:28:41.326Z,101441.29
2022-09-12T11:32:29.308Z,101443.86
2022-09-12T11:35:54.589Z,101449.20
2022-09-12T11:39:35.351Z,101453.29
2022-09-12T11:43:26.317Z,101451.14
2022-09-12T11:46:37.535Z,101451.21
2022-09-12T11:50:31.324Z,101454.88
2022-09-12T11:54:02.528Z,101450.26
2022-09-12T11:57:30.345Z,101452.98
2022-09-12T12:01:25.575Z,101448.57
2022-09-12T12:05:17.061Z,101445.09
2022-09-12T12:08:16.659Z,101449.66
2022-09-12T12:11:58.055Z,101454.96
2022-09-12T12:15:31.470Z,101452.80
2022-09-12T12:22:56.728Z,101456.42
2022-09-12T12:26:39.136Z,101459.23
2022-09-12T12:29:57.261Z,101459.16
2022-09-12T12:33:34.136Z,101459.14
2022-09-12T12:37:40.415Z,101456.02
2022-09-12T12:40:54.431Z,101456.61
2022-09-12T12:44:51.596Z,101460.64
2022-09-12T12:48:14.817Z,101462.30
2022-09-12T12:52:02.994Z,101465.08
2022-09-12T12:55:47.904Z,101456.00
2022-09-12T12:59:01.133Z,101453.36
2022-09-12T13:02:42.345Z,101454.85
2022-09-12T13:06:32.627Z,101451.63
2022-09-12T13:09:53.255Z,101457.86
2022-09-12T13:13:42.988Z,101457.54
2022-09-12T13:17:06.630Z,101456.23
2022-09-12T13:20:48.650Z,101455.95
2022-09-12T13:24:17.276Z,101456.02
2022-09-12T13:27:58.808Z,101454.63
2022-09-12T13:31:30.818Z,101450.08
2022-09-12T13:35:19.820Z,101448.72
2022-09-12T13:38:57.776Z,101450.16
2022-09-12T13:42:38.130Z,101446.77
2022-09-12T13:45:56.456Z,101441.86
2022-09-12T13:49:37.928Z,101438.01
2022-09-12T13:53:17.158Z,101439.79
2022-09-12T13:56:50.867Z,101440.23
2022-09-12T14:00:24.649Z,101443.56
2022-09-12T14:04:19.672Z,101447.89
2022-09-12T14:07:58.535Z,101441.95
2022-09-12T14:11:25.124Z,101443.98
2022-09-12T14:14:52.145Z,101445.56
2022-09-12T14:18:40.312Z,101444.65
2022-09-12T14:22:24.425Z,101446.30
2022-09-12T14:25:43.139Z,101448.95
2022-09-12T14:29:18.469Z,101448.00
2022-09-12T14:33:13.336Z,101449.06
2022-09-12T14:36:50.600Z,101447.45
2022-09-12T14:40:21.310Z,101444.55
2022-09-12T14:43:47.895Z,101443.23
2022-09-12T14:47:28.888Z,101444.48
2022-09-12T14:50:59.556Z,101444.55
2022-09-12T14:54:37.874Z,101441.13
2022-09-12T14:58:28.746Z,101433.86
2022-09-12T15:01:50.751Z,101434.52
2022-09-12T15:05:28.388Z,101431.04
2022-09-12T15:09:12.385Z,101431.42
2022-09-12T15:12:39.302Z,101438.20
2022-09-12T15:16:16.877Z,101442.49
2022-09-12T15:19:52.727Z,101437.95
2022-09-12T15:23:47.420Z,101437.58
2022-09-12T15:27:12.214Z,101437.73
2022-09-12T15:30:43.110Z,101434.87
2022-09-12T15:34:20.267Z,101435.95
2022-09-12T15:37:57.265Z,101437.64
2022-09-12T15:41:37.136Z,101439.67
2022-09-12T15:45:20.397Z,101436.77
2022-09-12T15:48:46.873Z,101439.63
2022-09-12T15:52:24.780Z,101441.00
2022-09-12T15:56:00.308Z,101435.09
2022-09-12T15:59:37.508Z,101436.64
2022-09-12T16:03:21.121Z,101433.41
2022-09-12T16:06:51.411Z,101430.28
2022-09-12T16:10:30.604Z,101429.83
2022-09-12T16:14:05.188Z,101433.02
2022-09-12T16:17:41.630Z,101428.30
2022-09-12T16:21:18.270Z,101428.55
2022-09-12T16:24:54.632Z,101425.77
2022-09-12T16:28:33.337Z,101428.80
2022-09-12T16:32:08.465Z,101430.77
2022-09-12T16:35:45.277Z,101428.63
2022-09-12T16:39:21.907Z,101424.02
2022-09-12T16:42:58.826Z,101421.31
2022-09-12T16:46:35.868Z,101417.13
2022-09-12T16:50:12.948Z,101413.23
2022-09-12T16:53:49.921Z,101413.61
2022-09-12T16:57:25.954Z,101408.83
2022-09-12T17:01:04.654Z,101408.75
2022-09-12T17:04:58.712Z,101413.29
2022-09-12T17:08:16.924Z,101409.12
2022-09-12T17:11:53.473Z,101409.56
2022-09-12T17:15:30.405Z,101407.13
2022-09-12T17:19:07.806Z,101408.84
2022-09-12T17:22:44.103Z,101407.68
2022-09-12T17:26:21.248Z,101403.23
2022-09-12T17:29:57.425Z,101399.17
2022-09-12T17:33:34.868Z,101403.04
2022-09-12T17:37:11.377Z,101400.96
2022-09-12T17:40:59.067Z,101400.17
2022-09-12T17:44:24.787Z,101399.64
2022-09-12T17:48:02.267Z,101400.90
2022-09-12T17:51:39.723Z,101407.79
2022-09-12T17:55:15.593Z,101407.75
2022-09-12T17:58:52.569Z,101408.90
2022-09-12T18:02:32.946Z,101406.35
2022-09-12T18:06:05.928Z,101406.63
2022-09-12T18:09:42.450Z,101403.54
2022-09-12T18:13:19.036Z,101400.80
2022-09-12T18:16:57.600Z,101403.73
2022-09-12T18:20:32.896Z,101397.29
2022-09-12T18:24:10.621Z,101401.23
2022-09-12T18:27:46.367Z,101403.38
2022-09-12T18:31:26.035Z,101403.08
2022-09-12T18:35:00.360Z,101401.88
2022-09-12T18:38:37.757Z,101398.22
2022-09-12T18:42:15.486Z,101393.84
2022-09-12T18:45:50.338Z,101396.84
2022-09-12T18:49:27.166Z,101395.62
2022-09-12T18:53:04.073Z,101392.11
2022-09-12T18:56:43.896Z,101390.73
2022-09-12T19:00:19.096Z,101391.81
2022-09-12T19:03:55.443Z,101392.17
2022-09-12T19:07:32.446Z,101382.82
2022-09-12T19:11:09.648Z,101379.14
2022-09-12T19:14:44.828Z,101377.39
2022-09-12T19:18:21.379Z,101375.98
2022-09-12T19:21:58.232Z,101375.47
2022-09-12T19:25:35.218Z,101376.19
2022-09-12T19:29:13.988Z,101370.53
2022-09-12T19:32:48.875Z,101364.52
2022-09-12T19:36:44.231Z,101366.84
2022-09-12T19:40:04.420Z,101364.54
2022-09-12T19:43:41.787Z,101361.55
2022-09-12T19:47:16.007Z,101356.60
2022-09-12T19:50:52.480Z,101353.64
2022-09-12T19:54:30.531Z,101354.56
2022-09-12T19:58:06.589Z,101353.36
2022-09-12T20:01:43.367Z,101355.87
2022-09-12T20:05:22.652Z,101354.32
2022-09-12T20:08:57.362Z,101355.23
2022-09-12T20:12:34.063Z,101353.69
2022-09-12T20:16:22.908Z,101351.23
2022-09-12T20:19:47.211Z,101345.77
2022-09-12T20:23:24.247Z,101343.52
2022-09-12T20:27:00.617Z,101341.77
2022-09-12T20:30:37.748Z,101340.39
2022-09-12T20:34:16.972Z,101337.23
2022-09-12T20:37:50.927Z,101334.46
2022-09-12T20:41:30.575Z,101336.09
2022-09-12T20:45:05.197Z,101328.02
2022-09-12T20:48:41.248Z,101324.49
2022-09-12T20:52:18.820Z,101317.09
2022-09-12T20:55:54.871Z,101315.36
2022-09-12T20:59:31.764Z,101315.19
2022-09-12T21:03:08.499Z,101312.55
2022-09-12T21:06:45.268Z,101314.50
2022-09-12T21:10:22.135Z,101310.63
2022-09-12T21:13:59.187Z,101308.52
2022-09-12T21:17:35.654Z,101307.33
2022-09-12T21:21:14.451Z,101302.39
2022-09-12T21:24:49.276Z,101302.04
2022-09-12T21:28:26.904Z,101294.98
2022-09-12T21:35:39.869Z,101285.98
2022-09-12T21:39:16.770Z,101283.17
2022-09-12T21:42:53.110Z,101282.27
2022-09-12T21:46:30.607Z,101281.39
2022-09-12T21:50:09.548Z,101276.98
2022-09-12T21:53:43.721Z,101270.30
2022-09-12T21:57:20.943Z,101270.27
2022-09-12T22:00:57.383Z,101272.75
2022-09-12T22:04:33.904Z,101269.59
2022-09-12T22:08:11.668Z,101271.55
2022-09-12T22:11:47.599Z,101275.09
2022-09-12T22:15:41.280Z,101279.52
2022-09-12T22:19:01.576Z,101277.29
2022-09-12T22:22:57.147Z,101277.70
2022-09-12T22:26:15.568Z,101274.54
2022-09-12T22:29:52.367Z,101276.33
2022-09-12T22:33:29.497Z,101273.34
2022-09-12T22:37:05.868Z,101270.18
2022-09-12T22:40:42.408Z,101271.82
2022-09-12T22:44:20.938Z,101268.69
2022-09-12T22:48:00.400Z,101263.27
2022-09-12T22:51:33.188Z,101264.48
2022-09-12T22:55:10.228Z,101259.41
2022-09-12T22:58:46.118Z,101264.17
2022-09-12T23:02:23.447Z,101255.02
2022-09-12T23:05:59.873Z,101251.17
2022-09-12T23:09:36.787Z,101243.26
2022-09-12T23:13:13.556Z,101242.04
2022-09-12T23:16:50.216Z,101243.12
2022-09-12T23:20:27.176Z,101239.27
2022-09-12T23:24:04.755Z,101236.97
2022-09-12T23:27:40.747Z,101237.01
2022-09-12T23:31:17.688Z,101230.48
2022-09-12T23:34:54.104Z,101224.15
2022-09-12T23:38:31.756Z,101226.63
2022-09-12T23:42:07.575Z,101222.22
2022-09-12T23:45:44.594Z,101224.34
2022-09-12T23:49:21.840Z,101216.41
2022-09-12T23:52:58.369Z,101215.34
2022-09-12T23:56:34.990Z,101215.17
